sensor_id;sensor_type;location;lat;lon;timestamp;temperature;humidity
15656;DHT22;7928;43.614;1.456;2023-03-14T00:01:13;11.20;99.90
15656;DHT22;7928;43.614;1.456;2023-03-14T00:03:41;11.20;99.90
15656;DHT22;7928;43.614;1.456;2023-03-14T00:06:09;11.20;99.90
15656;DHT22;7928;43.614;1.456;2023-03-14T00:08:37;11.20;99.90
15656;DHT22;7928;43.614;1.456;2023-03-14T00:11:05;11.10;99.90
15656;DHT22;7928;43.614;1.456;2023-03-14T00:13:32;11.20;99.90
15656;DHT22;7928;43.614;1.456;2023-03-14T00:16:04;11.20;99.90
15656;DHT22;7928;43.614;1.456;2023-03-14T00:18:32;11.10;99.90
15656;DHT22;7928;43.614;1.456;2023-03-14T00:21:00;11.10;99.90
15656;DHT22;7928;43.614;1.456;2023-03-14T00:23:27;11.10;99.90
15656;DHT22;7928;43.614;1.456;2023-03-14T00:25:58;11.10;99.90
15656;DHT22;7928;43.614;1.456;2023-03-14T00:28:26;11.10;99.90
15656;DHT22;7928;43.614;1.456;2023-03-14T00:30:53;11.10;99.90
15656;DHT22;7928;43.614;1.456;2023-03-14T00:33:20;11.10;99.90
15656;DHT22;7928;43.614;1.456;2023-03-14T00:35:54;11.20;99.90
15656;DHT22;7928;43.614;1.456;2023-03-14T00:38:22;11.20;99.90
15656;DHT22;7928;43.614;1.456;2023-03-14T00:40:50;11.30;99.90
15656;DHT22;7928;43.614;1.456;2023-03-14T00:43:17;11.30;99.90
15656;DHT22;7928;43.614;1.456;2023-03-14T00:45:44;11.40;99.90
15656;DHT22;7928;43.614;1.456;2023-03-14T00:48:11;11.40;99.90
15656;DHT22;7928;43.614;1.456;2023-03-14T00:50:38;11.40;99.90
15656;DHT22;7928;43.614;1.456;2023-03-14T00:53:07;11.30;99.90
15656;DHT22;7928;43.614;1.456;2023-03-14T00:55:36;11.30;99.90
15656;DHT22;7928;43.614;1.456;2023-03-14T00:58:03;11.20;99.90
15656;DHT22;7928;43.614;1.456;2023-03-14T01:00:30;11.20;99.90
15656;DHT22;7928;43.614;1.456;2023-03-14T01:02:58;11.20;99.90
15656;DHT22;7928;43.614;1.456;2023-03-14T01:05:25;11.10;99.90
15656;DHT22;7928;43.614;1.456;2023-03-14T01:07:52;11.10;99.90
15656;DHT22;7928;43.614;1.456;2023-03-14T01:10:20;11.10;99.90
15656;DHT22;7928;43.614;1.456;2023-03-14T01:12:47;11.10;99.90
15656;DHT22;7928;43.614;1.456;2023-03-14T01:15:15;11.10;99.90
15656;DHT22;7928;43.614;1.456;2023-03-14T01:17:42;11.10;99.90
15656;DHT22;7928;43.614;1.456;2023-03-14T01:20:11;11.20;99.90
15656;DHT22;7928;43.614;1.456;2023-03-14T01:22:39;11.20;99.90
15656;DHT22;7928;43.614;1.456;2023-03-14T01:25:08;11.20;99.90
15656;DHT22;7928;43.614;1.456;2023-03-14T01:27:37;11.20;99.90
15656;DHT22;7928;43.614;1.456;2023-03-14T01:30:05;11.20;99.90
15656;DHT22;7928;43.614;1.456;2023-03-14T01:32:34;11.20;99.90
15656;DHT22;7928;43.614;1.456;2023-03-14T01:35:01;11.20;99.90
15656;DHT22;7928;43.614;1.456;2023-03-14T01:37:28;11.20;99.90
15656;DHT22;7928;43.614;1.456;2023-03-14T01:39:55;11.20;99.90
15656;DHT22;7928;43.614;1.456;2023-03-14T01:42:22;11.20;99.90
15656;DHT22;7928;43.614;1.456;2023-03-14T01:44:53;11.20;99.90
15656;DHT22;7928;43.614;1.456;2023-03-14T01:47:20;11.30;99.90
15656;DHT22;7928;43.614;1.456;2023-03-14T01:49:49;11.40;99.90
15656;DHT22;7928;43.614;1.456;2023-03-14T01:52:19;11.70;94.40
15656;DHT22;7928;43.614;1.456;2023-03-14T01:54:49;11.80;80.80
15656;DHT22;7928;43.614;1.456;2023-03-14T01:57:19;12.00;78.80
15656;DHT22;7928;43.614;1.456;2023-03-14T01:59:53;12.00;73.50
15656;DHT22;7928;43.614;1.456;2023-03-14T02:02:21;12.10;63.20
15656;DHT22;7928;43.614;1.456;2023-03-14T02:04:50;12.10;65.10
15656;DHT22;7928;43.614;1.456;2023-03-14T02:07:20;12.00;63.40
15656;DHT22;7928;43.614;1.456;2023-03-14T02:09:49;12.00;67.00
15656;DHT22;7928;43.614;1.456;2023-03-14T02:12:18;12.00;65.10
15656;DHT22;7928;43.614;1.456;2023-03-14T02:14:47;12.00;66.80
15656;DHT22;7928;43.614;1.456;2023-03-14T02:17:17;12.10;58.30
15656;DHT22;7928;43.614;1.456;2023-03-14T02:19:55;12.10;64.40
15656;DHT22;7928;43.614;1.456;2023-03-14T02:22:26;12.20;65.90
15656;DHT22;7928;43.614;1.456;2023-03-14T02:24:58;12.20;59.40
15656;DHT22;7928;43.614;1.456;2023-03-14T02:27:31;12.20;62.20
15656;DHT22;7928;43.614;1.456;2023-03-14T02:30:01;12.20;64.60
15656;DHT22;7928;43.614;1.456;2023-03-14T02:32:31;12.20;59.00
15656;DHT22;7928;43.614;1.456;2023-03-14T02:35:01;12.20;62.00
15656;DHT22;7928;43.614;1.456;2023-03-14T02:37:34;12.20;61.10
15656;DHT22;7928;43.614;1.456;2023-03-14T02:40:02;12.20;59.20
15656;DHT22;7928;43.614;1.456;2023-03-14T02:42:31;12.20;64.30
15656;DHT22;7928;43.614;1.456;2023-03-14T02:47:51;12.20;77.10
15656;DHT22;7928;43.614;1.456;2023-03-14T02:50:22;12.20;77.40
15656;DHT22;7928;43.614;1.456;2023-03-14T02:52:50;12.20;99.90
15656;DHT22;7928;43.614;1.456;2023-03-14T02:55:20;12.10;99.90
15656;DHT22;7928;43.614;1.456;2023-03-14T02:57:49;12.00;99.90
15656;DHT22;7928;43.614;1.456;2023-03-14T03:00:17;11.90;99.90
15656;DHT22;7928;43.614;1.456;2023-03-14T03:02:44;11.70;99.90
15656;DHT22;7928;43.614;1.456;2023-03-14T03:05:11;11.70;99.90
15656;DHT22;7928;43.614;1.456;2023-03-14T03:07:38;11.70;91.30
15656;DHT22;7928;43.614;1.456;2023-03-14T03:10:06;11.70;90.10
15656;DHT22;7928;43.614;1.456;2023-03-14T03:12:33;11.70;70.50
15656;DHT22;7928;43.614;1.456;2023-03-14T03:15:02;11.80;46.00
15656;DHT22;7928;43.614;1.456;2023-03-14T03:17:29;11.80;40.80
15656;DHT22;7928;43.614;1.456;2023-03-14T03:19:56;11.80;22.10
15656;DHT22;7928;43.614;1.456;2023-03-14T03:22:23;11.80;25.70
15656;DHT22;7928;43.614;1.456;2023-03-14T03:24:50;11.80;15.70
15656;DHT22;7928;43.614;1.456;2023-03-14T03:27:17;11.90;15.20
15656;DHT22;7928;43.614;1.456;2023-03-14T03:29:44;11.90;18.60
15656;DHT22;7928;43.614;1.456;2023-03-14T03:32:13;12.00;8.00
15656;DHT22;7928;43.614;1.456;2023-03-14T03:34:40;12.00;13.30
15656;DHT22;7928;43.614;1.456;2023-03-14T03:37:06;12.00;20.60
15656;DHT22;7928;43.614;1.456;2023-03-14T03:39:33;12.00;28.40
15656;DHT22;7928;43.614;1.456;2023-03-14T03:42:00;12.00;39.10
15656;DHT22;7928;43.614;1.456;2023-03-14T03:44:27;11.90;46.40
15656;DHT22;7928;43.614;1.456;2023-03-14T03:46:54;11.90;55.80
15656;DHT22;7928;43.614;1.456;2023-03-14T03:49:23;11.90;65.50
15656;DHT22;7928;43.614;1.456;2023-03-14T03:51:50;11.80;75.30
15656;DHT22;7928;43.614;1.456;2023-03-14T03:54:17;11.80;75.80
15656;DHT22;7928;43.614;1.456;2023-03-14T03:56:44;11.80;93.90
15656;DHT22;7928;43.614;1.456;2023-03-14T03:59:11;11.70;91.60
15656;DHT22;7928;43.614;1.456;2023-03-14T04:01:38;11.70;89.90
15656;DHT22;7928;43.614;1.456;2023-03-14T04:04:05;11.60;90.90
15656;DHT22;7928;43.614;1.456;2023-03-14T04:06:34;11.60;93.60
15656;DHT22;7928;43.614;1.456;2023-03-14T04:09:01;11.50;99.90
15656;DHT22;7928;43.614;1.456;2023-03-14T04:11:28;11.40;99.90
15656;DHT22;7928;43.614;1.456;2023-03-14T04:13:55;11.30;99.90
15656;DHT22;7928;43.614;1.456;2023-03-14T04:16:23;11.10;99.90
15656;DHT22;7928;43.614;1.456;2023-03-14T04:18:51;11.00;99.90
15656;DHT22;7928;43.614;1.456;2023-03-14T04:21:19;11.00;99.90
15656;DHT22;7928;43.614;1.456;2023-03-14T04:23:47;11.00;99.90
15656;DHT22;7928;43.614;1.456;2023-03-14T04:26:14;10.80;99.90
15656;DHT22;7928;43.614;1.456;2023-03-14T04:28:41;10.70;99.90
15656;DHT22;7928;43.614;1.456;2023-03-14T04:31:09;10.70;99.90
15656;DHT22;7928;43.614;1.456;2023-03-14T04:33:36;10.70;99.90
15656;DHT22;7928;43.614;1.456;2023-03-14T04:36:04;10.70;99.90
15656;DHT22;7928;43.614;1.456;2023-03-14T04:38:32;10.70;99.90
15656;DHT22;7928;43.614;1.456;2023-03-14T04:41:00;10.70;99.90
15656;DHT22;7928;43.614;1.456;2023-03-14T04:43:27;10.70;99.90
15656;DHT22;7928;43.614;1.456;2023-03-14T04:45:55;10.80;99.90
15656;DHT22;7928;43.614;1.456;2023-03-14T04:48:23;10.80;99.90
15656;DHT22;7928;43.614;1.456;2023-03-14T04:50:50;10.80;99.90
15656;DHT22;7928;43.614;1.456;2023-03-14T04:53:17;10.80;99.90
15656;DHT22;7928;43.614;1.456;2023-03-14T04:55:48;10.80;99.90
15656;DHT22;7928;43.614;1.456;2023-03-14T04:58:17;10.80;99.90
15656;DHT22;7928;43.614;1.456;2023-03-14T05:00:44;10.80;99.90
15656;DHT22;7928;43.614;1.456;2023-03-14T05:03:11;10.80;99.90
15656;DHT22;7928;43.614;1.456;2023-03-14T05:05:38;10.80;99.90
15656;DHT22;7928;43.614;1.456;2023-03-14T05:08:05;10.80;99.90
15656;DHT22;7928;43.614;1.456;2023-03-14T05:10:32;10.70;99.90
15656;DHT22;7928;43.614;1.456;2023-03-14T05:12:59;10.70;99.90
15656;DHT22;7928;43.614;1.456;2023-03-14T05:15:27;10.70;99.90
15656;DHT22;7928;43.614;1.456;2023-03-14T05:17:54;10.70;99.90
15656;DHT22;7928;43.614;1.456;2023-03-14T05:20:21;10.80;99.90
15656;DHT22;7928;43.614;1.456;2023-03-14T05:22:48;10.80;99.90
15656;DHT22;7928;43.614;1.456;2023-03-14T05:25:15;10.80;99.90
15656;DHT22;7928;43.614;1.456;2023-03-14T05:27:42;10.80;99.90
15656;DHT22;7928;43.614;1.456;2023-03-14T05:30:10;11.60;99.90
15656;DHT22;7928;43.614;1.456;2023-03-14T05:32:39;10.80;99.90
15656;DHT22;7928;43.614;1.456;2023-03-14T05:35:06;10.80;99.90
15656;DHT22;7928;43.614;1.456;2023-03-14T05:37:33;10.80;99.90
15656;DHT22;7928;43.614;1.456;2023-03-14T05:40:01;10.90;99.90
15656;DHT22;7928;43.614;1.456;2023-03-14T05:42:28;10.90;99.90
15656;DHT22;7928;43.614;1.456;2023-03-14T05:44:55;10.90;99.90
15656;DHT22;7928;43.614;1.456;2023-03-14T05:47:22;10.90;99.90
15656;DHT22;7928;43.614;1.456;2023-03-14T05:49:51;10.90;99.90
15656;DHT22;7928;43.614;1.456;2023-03-14T05:52:18;11.00;99.90
15656;DHT22;7928;43.614;1.456;2023-03-14T05:54:45;11.00;99.90
15656;DHT22;7928;43.614;1.456;2023-03-14T05:57:12;11.00;99.90
15656;DHT22;7928;43.614;1.456;2023-03-14T05:59:39;11.00;99.90
15656;DHT22;7928;43.614;1.456;2023-03-14T06:02:06;11.00;99.90
15656;DHT22;7928;43.614;1.456;2023-03-14T06:04:33;10.90;99.90
15656;DHT22;7928;43.614;1.456;2023-03-14T06:07:01;10.80;99.90
15656;DHT22;7928;43.614;1.456;2023-03-14T06:09:28;10.80;99.90
15656;DHT22;7928;43.614;1.456;2023-03-14T06:11:55;10.70;99.90
15656;DHT22;7928;43.614;1.456;2023-03-14T06:14:22;11.00;99.90
15656;DHT22;7928;43.614;1.456;2023-03-14T06:16:51;10.70;99.90
15656;DHT22;7928;43.614;1.456;2023-03-14T06:19:18;10.80;99.90
15656;DHT22;7928;43.614;1.456;2023-03-14T06:21:46;10.80;99.90
15656;DHT22;7928;43.614;1.456;2023-03-14T06:24:14;10.70;99.90
15656;DHT22;7928;43.614;1.456;2023-03-14T06:26:41;10.70;99.90
15656;DHT22;7928;43.614;1.456;2023-03-14T06:29:08;10.70;99.90
15656;DHT22;7928;43.614;1.456;2023-03-14T06:31:35;10.60;99.90
15656;DHT22;7928;43.614;1.456;2023-03-14T06:34:02;10.60;99.90
15656;DHT22;7928;43.614;1.456;2023-03-14T06:36:30;10.50;99.90
15656;DHT22;7928;43.614;1.456;2023-03-14T06:38:57;10.60;99.90
15656;DHT22;7928;43.614;1.456;2023-03-14T06:41:25;10.60;99.90
15656;DHT22;7928;43.614;1.456;2023-03-14T06:43:52;10.60;99.90
15656;DHT22;7928;43.614;1.456;2023-03-14T06:46:19;10.60;99.90
15656;DHT22;7928;43.614;1.456;2023-03-14T06:48:46;10.60;99.90
15656;DHT22;7928;43.614;1.456;2023-03-14T06:51:14;10.50;99.90
15656;DHT22;7928;43.614;1.456;2023-03-14T06:53:41;10.50;99.90
15656;DHT22;7928;43.614;1.456;2023-03-14T06:56:08;10.50;99.90
15656;DHT22;7928;43.614;1.456;2023-03-14T06:58:37;10.60;99.90
15656;DHT22;7928;43.614;1.456;2023-03-14T07:01:04;10.50;99.90
15656;DHT22;7928;43.614;1.456;2023-03-14T07:03:32;10.50;99.90
15656;DHT22;7928;43.614;1.456;2023-03-14T07:05:59;10.40;99.90
15656;DHT22;7928;43.614;1.456;2023-03-14T07:08:26;10.40;99.90
15656;DHT22;7928;43.614;1.456;2023-03-14T07:10:56;10.40;99.90
15656;DHT22;7928;43.614;1.456;2023-03-14T07:13:23;10.30;99.90
15656;DHT22;7928;43.614;1.456;2023-03-14T07:15:51;10.30;99.90
15656;DHT22;7928;43.614;1.456;2023-03-14T07:18:18;10.20;99.90
15656;DHT22;7928;43.614;1.456;2023-03-14T07:20:45;10.20;99.90
15656;DHT22;7928;43.614;1.456;2023-03-14T07:23:12;10.20;99.90
15656;DHT22;7928;43.614;1.456;2023-03-14T07:25:39;10.20;99.90
15656;DHT22;7928;43.614;1.456;2023-03-14T07:28:06;10.30;99.90
15656;DHT22;7928;43.614;1.456;2023-03-14T07:30:33;10.30;99.90
15656;DHT22;7928;43.614;1.456;2023-03-14T07:33:02;10.40;99.90
15656;DHT22;7928;43.614;1.456;2023-03-14T07:35:29;10.50;99.90
15656;DHT22;7928;43.614;1.456;2023-03-14T07:37:57;10.50;99.90
15656;DHT22;7928;43.614;1.456;2023-03-14T07:40:24;10.50;99.90
15656;DHT22;7928;43.614;1.456;2023-03-14T07:42:51;10.60;99.90
15656;DHT22;7928;43.614;1.456;2023-03-14T07:45:20;10.70;99.90
15656;DHT22;7928;43.614;1.456;2023-03-14T07:47:47;10.80;99.90
15656;DHT22;7928;43.614;1.456;2023-03-14T07:50:16;10.90;99.90
15656;DHT22;7928;43.614;1.456;2023-03-14T07:52:44;11.00;99.90
15656;DHT22;7928;43.614;1.456;2023-03-14T07:55:11;11.10;99.90
15656;DHT22;7928;43.614;1.456;2023-03-14T07:57:39;11.20;99.90
15656;DHT22;7928;43.614;1.456;2023-03-14T08:00:07;11.30;99.90
15656;DHT22;7928;43.614;1.456;2023-03-14T08:02:35;11.40;99.90
15656;DHT22;7928;43.614;1.456;2023-03-14T08:05:03;11.50;99.90
15656;DHT22;7928;43.614;1.456;2023-03-14T08:07:31;11.50;99.90
15656;DHT22;7928;43.614;1.456;2023-03-14T08:09:58;11.60;99.90
15656;DHT22;7928;43.614;1.456;2023-03-14T08:12:25;11.50;99.90
15656;DHT22;7928;43.614;1.456;2023-03-14T08:14:52;11.50;99.90
15656;DHT22;7928;43.614;1.456;2023-03-14T08:17:19;11.60;99.90
15656;DHT22;7928;43.614;1.456;2023-03-14T08:19:46;11.60;99.90
15656;DHT22;7928;43.614;1.456;2023-03-14T08:22:13;11.70;99.90
15656;DHT22;7928;43.614;1.456;2023-03-14T08:24:41;11.90;99.90
15656;DHT22;7928;43.614;1.456;2023-03-14T08:27:08;12.00;99.90
15656;DHT22;7928;43.614;1.456;2023-03-14T08:29:36;12.00;99.90
15656;DHT22;7928;43.614;1.456;2023-03-14T08:32:04;12.10;99.90
15656;DHT22;7928;43.614;1.456;2023-03-14T08:34:33;12.20;99.90
15656;DHT22;7928;43.614;1.456;2023-03-14T08:36:59;12.40;99.90
15656;DHT22;7928;43.614;1.456;2023-03-14T08:39:27;12.50;99.90
15656;DHT22;7928;43.614;1.456;2023-03-14T08:41:55;12.60;99.90
15656;DHT22;7928;43.614;1.456;2023-03-14T08:44:22;12.70;99.90
15656;DHT22;7928;43.614;1.456;2023-03-14T08:46:49;12.70;99.90
15656;DHT22;7928;43.614;1.456;2023-03-14T08:49:16;12.70;99.90
15656;DHT22;7928;43.614;1.456;2023-03-14T08:51:43;12.60;99.90
15656;DHT22;7928;43.614;1.456;2023-03-14T08:54:10;12.50;99.90
15656;DHT22;7928;43.614;1.456;2023-03-14T08:56:37;12.40;99.90
15656;DHT22;7928;43.614;1.456;2023-03-14T08:59:06;12.40;99.90
15656;DHT22;7928;43.614;1.456;2023-03-14T09:01:33;12.40;99.90
15656;DHT22;7928;43.614;1.456;2023-03-14T09:04:00;12.40;99.90
15656;DHT22;7928;43.614;1.456;2023-03-14T09:06:27;12.40;99.90
15656;DHT22;7928;43.614;1.456;2023-03-14T09:08:54;12.30;99.90
15656;DHT22;7928;43.614;1.456;2023-03-14T09:11:21;12.40;99.90
15656;DHT22;7928;43.614;1.456;2023-03-14T09:13:48;12.40;99.90
15656;DHT22;7928;43.614;1.456;2023-03-14T09:16:16;12.40;99.90
15656;DHT22;7928;43.614;1.456;2023-03-14T09:18:44;12.20;99.90
15656;DHT22;7928;43.614;1.456;2023-03-14T09:21:11;11.50;99.90
15656;DHT22;7928;43.614;1.456;2023-03-14T09:23:39;10.80;99.90
15656;DHT22;7928;43.614;1.456;2023-03-14T09:26:06;10.40;99.90
15656;DHT22;7928;43.614;1.456;2023-03-14T09:28:33;10.10;99.90
15656;DHT22;7928;43.614;1.456;2023-03-14T09:31:05;10.00;99.90
15656;DHT22;7928;43.614;1.456;2023-03-14T09:33:34;9.90;99.90
15656;DHT22;7928;43.614;1.456;2023-03-14T09:36:02;9.70;99.90
15656;DHT22;7928;43.614;1.456;2023-03-14T09:38:29;9.70;99.90
15656;DHT22;7928;43.614;1.456;2023-03-14T09:40:58;9.70;99.90
15656;DHT22;7928;43.614;1.456;2023-03-14T09:43:30;9.80;99.90
15656;DHT22;7928;43.614;1.456;2023-03-14T09:45:59;10.00;99.90
15656;DHT22;7928;43.614;1.456;2023-03-14T09:48:30;10.30;99.90
15656;DHT22;7928;43.614;1.456;2023-03-14T09:51:03;10.70;99.90
15656;DHT22;7928;43.614;1.456;2023-03-14T09:53:36;10.90;99.90
15656;DHT22;7928;43.614;1.456;2023-03-14T09:56:07;11.40;99.90
15656;DHT22;7928;43.614;1.456;2023-03-14T09:58:36;11.60;99.90
15656;DHT22;7928;43.614;1.456;2023-03-14T10:01:03;11.40;99.90
15656;DHT22;7928;43.614;1.456;2023-03-14T10:03:32;11.80;99.90
15656;DHT22;7928;43.614;1.456;2023-03-14T10:06:02;11.70;99.90
15656;DHT22;7928;43.614;1.456;2023-03-14T10:08:39;11.70;99.90
15656;DHT22;7928;43.614;1.456;2023-03-14T10:11:06;11.80;99.90
15656;DHT22;7928;43.614;1.456;2023-03-14T10:13:33;11.90;99.90
15656;DHT22;7928;43.614;1.456;2023-03-14T10:16:01;12.10;99.90
15656;DHT22;7928;43.614;1.456;2023-03-14T10:18:30;12.30;99.90
15656;DHT22;7928;43.614;1.456;2023-03-14T10:21:11;12.80;99.90
15656;DHT22;7928;43.614;1.456;2023-03-14T10:23:43;12.90;99.90
15656;DHT22;7928;43.614;1.456;2023-03-14T10:26:14;12.90;99.90
15656;DHT22;7928;43.614;1.456;2023-03-14T10:28:44;12.90;99.90
15656;DHT22;7928;43.614;1.456;2023-03-14T10:31:12;13.00;99.90
15656;DHT22;7928;43.614;1.456;2023-03-14T10:33:39;13.10;99.90
15656;DHT22;7928;43.614;1.456;2023-03-14T10:36:19;13.10;99.90
15656;DHT22;7928;43.614;1.456;2023-03-14T10:38:47;13.00;99.90
15656;DHT22;7928;43.614;1.456;2023-03-14T10:41:18;12.80;99.90
15656;DHT22;7928;43.614;1.456;2023-03-14T10:43:50;12.50;99.90
15656;DHT22;7928;43.614;1.456;2023-03-14T10:46:19;12.60;99.90
15656;DHT22;7928;43.614;1.456;2023-03-14T10:48:47;12.60;99.90
15656;DHT22;7928;43.614;1.456;2023-03-14T10:51:24;12.50;99.90
15656;DHT22;7928;43.614;1.456;2023-03-14T10:53:57;12.40;99.90
15656;DHT22;7928;43.614;1.456;2023-03-14T10:56:26;13.60;99.90
15656;DHT22;7928;43.614;1.456;2023-03-14T10:58:55;13.70;99.90
15656;DHT22;7928;43.614;1.456;2023-03-14T11:01:36;13.30;99.90
15656;DHT22;7928;43.614;1.456;2023-03-14T11:04:15;12.20;99.90
15656;DHT22;7928;43.614;1.456;2023-03-14T11:06:50;11.40;99.90
15656;DHT22;7928;43.614;1.456;2023-03-14T11:09:23;10.80;99.90
15656;DHT22;7928;43.614;1.456;2023-03-14T11:11:54;10.50;99.90
15656;DHT22;7928;43.614;1.456;2023-03-14T11:14:29;10.70;99.90
15656;DHT22;7928;43.614;1.456;2023-03-14T11:17:02;11.10;99.90
15656;DHT22;7928;43.614;1.456;2023-03-14T11:19:42;11.40;99.90
15656;DHT22;7928;43.614;1.456;2023-03-14T11:22:20;11.70;99.90
15656;DHT22;7928;43.614;1.456;2023-03-14T11:24:56;11.90;99.90
15656;DHT22;7928;43.614;1.456;2023-03-14T11:27:28;12.10;99.90
15656;DHT22;7928;43.614;1.456;2023-03-14T11:30:03;13.10;99.90
15656;DHT22;7928;43.614;1.456;2023-03-14T11:32:41;13.40;99.90
15656;DHT22;7928;43.614;1.456;2023-03-14T11:35:17;12.80;99.90
15656;DHT22;7928;43.614;1.456;2023-03-14T11:37:52;12.30;99.90
15656;DHT22;7928;43.614;1.456;2023-03-14T11:40:21;11.90;99.90
15656;DHT22;7928;43.614;1.456;2023-03-14T11:42:55;11.60;99.90
15656;DHT22;7928;43.614;1.456;2023-03-14T11:45:29;11.50;99.90
15656;DHT22;7928;43.614;1.456;2023-03-14T11:48:10;11.30;99.90
15656;DHT22;7928;43.614;1.456;2023-03-14T11:50:42;11.50;99.90
15656;DHT22;7928;43.614;1.456;2023-03-14T11:53:14;11.80;99.90
15656;DHT22;7928;43.614;1.456;2023-03-14T11:55:43;11.90;99.90
15656;DHT22;7928;43.614;1.456;2023-03-14T11:58:15;12.10;99.90
15656;DHT22;7928;43.614;1.456;2023-03-14T12:00:45;12.30;99.90
15656;DHT22;7928;43.614;1.456;2023-03-14T12:03:19;12.50;99.90
15656;DHT22;7928;43.614;1.456;2023-03-14T12:06:00;12.20;99.90
15656;DHT22;7928;43.614;1.456;2023-03-14T12:08:43;12.20;99.90
15656;DHT22;7928;43.614;1.456;2023-03-14T12:11:15;12.00;99.90
15656;DHT22;7928;43.614;1.456;2023-03-14T12:13:47;12.00;99.90
15656;DHT22;7928;43.614;1.456;2023-03-14T12:16:33;12.20;99.90
15656;DHT22;7928;43.614;1.456;2023-03-14T12:22:24;14.20;99.90
15656;DHT22;7928;43.614;1.456;2023-03-14T12:24:57;13.80;99.90
15656;DHT22;7928;43.614;1.456;2023-03-14T12:27:45;13.30;99.90
15656;DHT22;7928;43.614;1.456;2023-03-14T12:30:31;12.90;99.90
15656;DHT22;7928;43.614;1.456;2023-03-14T12:33:31;12.70;99.90
15656;DHT22;7928;43.614;1.456;2023-03-14T12:39:01;13.30;99.90
15656;DHT22;7928;43.614;1.456;2023-03-14T12:41:40;15.00;99.90
15656;DHT22;7928;43.614;1.456;2023-03-14T12:44:44;16.60;99.90
15656;DHT22;7928;43.614;1.456;2023-03-14T12:47:50;17.50;99.90
15656;DHT22;7928;43.614;1.456;2023-03-14T12:50:25;17.00;99.90
15656;DHT22;7928;43.614;1.456;2023-03-14T12:53:23;16.10;99.90
15656;DHT22;7928;43.614;1.456;2023-03-14T12:56:04;16.20;99.90
15656;DHT22;7928;43.614;1.456;2023-03-14T12:58:35;15.80;99.90
15656;DHT22;7928;43.614;1.456;2023-03-14T13:01:06;15.00;99.90
15656;DHT22;7928;43.614;1.456;2023-03-14T13:03:45;14.50;99.90
15656;DHT22;7928;43.614;1.456;2023-03-14T13:06:12;14.10;99.90
15656;DHT22;7928;43.614;1.456;2023-03-14T13:08:41;13.60;99.90
15656;DHT22;7928;43.614;1.456;2023-03-14T13:11:12;13.60;99.90
15656;DHT22;7928;43.614;1.456;2023-03-14T13:13:45;15.30;99.90
15656;DHT22;7928;43.614;1.456;2023-03-14T13:16:16;17.00;99.90
15656;DHT22;7928;43.614;1.456;2023-03-14T13:18:45;18.20;99.90
15656;DHT22;7928;43.614;1.456;2023-03-14T13:21:15;18.90;99.90
15656;DHT22;7928;43.614;1.456;2023-03-14T13:23:56;19.70;99.90
15656;DHT22;7928;43.614;1.456;2023-03-14T13:26:25;20.60;99.90
15656;DHT22;7928;43.614;1.456;2023-03-14T13:28:55;20.40;99.90
15656;DHT22;7928;43.614;1.456;2023-03-14T13:31:24;20.60;99.90
15656;DHT22;7928;43.614;1.456;2023-03-14T13:33:59;19.60;99.90
15656;DHT22;7928;43.614;1.456;2023-03-14T13:36:26;18.20;99.90
15656;DHT22;7928;43.614;1.456;2023-03-14T13:38:57;17.40;99.90
15656;DHT22;7928;43.614;1.456;2023-03-14T13:41:25;16.30;99.90
15656;DHT22;7928;43.614;1.456;2023-03-14T13:44:01;15.40;99.90
15656;DHT22;7928;43.614;1.456;2023-03-14T13:46:29;14.60;99.90
15656;DHT22;7928;43.614;1.456;2023-03-14T13:48:58;13.70;99.90
15656;DHT22;7928;43.614;1.456;2023-03-14T13:51:27;13.20;99.90
15656;DHT22;7928;43.614;1.456;2023-03-14T13:53:57;12.80;99.90
15656;DHT22;7928;43.614;1.456;2023-03-14T13:56:26;12.70;99.90
15656;DHT22;7928;43.614;1.456;2023-03-14T13:58:54;12.60;99.90
15656;DHT22;7928;43.614;1.456;2023-03-14T14:01:25;12.40;99.90
15656;DHT22;7928;43.614;1.456;2023-03-14T14:03:56;12.30;99.90
15656;DHT22;7928;43.614;1.456;2023-03-14T14:06:28;12.50;99.90
15656;DHT22;7928;43.614;1.456;2023-03-14T14:08:57;12.20;99.90
15656;DHT22;7928;43.614;1.456;2023-03-14T14:11:36;12.30;99.90
15656;DHT22;7928;43.614;1.456;2023-03-14T14:14:07;12.60;99.90
15656;DHT22;7928;43.614;1.456;2023-03-14T14:16:38;15.20;99.90
15656;DHT22;7928;43.614;1.456;2023-03-14T14:19:05;16.90;99.90
15656;DHT22;7928;43.614;1.456;2023-03-14T14:21:32;18.10;99.90
15656;DHT22;7928;43.614;1.456;2023-03-14T14:23:59;19.10;99.90
15656;DHT22;7928;43.614;1.456;2023-03-14T14:26:27;19.70;99.90
15656;DHT22;7928;43.614;1.456;2023-03-14T14:29:02;20.00;99.90
15656;DHT22;7928;43.614;1.456;2023-03-14T14:31:29;20.30;99.90
15656;DHT22;7928;43.614;1.456;2023-03-14T14:33:59;19.00;99.90
15656;DHT22;7928;43.614;1.456;2023-03-14T14:36:29;17.50;99.90
15656;DHT22;7928;43.614;1.456;2023-03-14T14:38:59;15.90;99.90
15656;DHT22;7928;43.614;1.456;2023-03-14T14:41:28;15.00;99.90
15656;DHT22;7928;43.614;1.456;2023-03-14T14:43:56;14.80;99.90
15656;DHT22;7928;43.614;1.456;2023-03-14T14:46:26;14.50;99.90
15656;DHT22;7928;43.614;1.456;2023-03-14T14:48:56;14.80;99.90
15656;DHT22;7928;43.614;1.456;2023-03-14T14:51:27;15.10;99.90
15656;DHT22;7928;43.614;1.456;2023-03-14T14:54:16;14.90;99.90
15656;DHT22;7928;43.614;1.456;2023-03-14T14:56:48;14.40;99.90
15656;DHT22;7928;43.614;1.456;2023-03-14T14:59:24;13.60;99.90
15656;DHT22;7928;43.614;1.456;2023-03-14T15:01:56;13.20;99.90
15656;DHT22;7928;43.614;1.456;2023-03-14T15:04:23;12.70;99.90
15656;DHT22;7928;43.614;1.456;2023-03-14T15:06:52;12.50;99.90
15656;DHT22;7928;43.614;1.456;2023-03-14T15:09:19;12.40;99.90
15656;DHT22;7928;43.614;1.456;2023-03-14T15:11:47;12.40;99.90
15656;DHT22;7928;43.614;1.456;2023-03-14T15:14:14;12.50;99.90
15656;DHT22;7928;43.614;1.456;2023-03-14T15:16:41;12.80;99.90
15656;DHT22;7928;43.614;1.456;2023-03-14T15:19:12;13.40;99.90
15656;DHT22;7928;43.614;1.456;2023-03-14T15:21:40;14.30;99.90
15656;DHT22;7928;43.614;1.456;2023-03-14T15:24:10;15.80;99.90
15656;DHT22;7928;43.614;1.456;2023-03-14T15:26:37;18.90;99.90
15656;DHT22;7928;43.614;1.456;2023-03-14T15:29:04;20.40;99.90
15656;DHT22;7928;43.614;1.456;2023-03-14T15:31:33;19.00;99.90
15656;DHT22;7928;43.614;1.456;2023-03-14T15:34:00;17.70;99.90
15656;DHT22;7928;43.614;1.456;2023-03-14T15:36:29;17.10;99.90
15656;DHT22;7928;43.614;1.456;2023-03-14T15:38:57;16.30;99.90
15656;DHT22;7928;43.614;1.456;2023-03-14T15:41:27;16.60;99.90
15656;DHT22;7928;43.614;1.456;2023-03-14T15:43:55;17.80;99.90
15656;DHT22;7928;43.614;1.456;2023-03-14T15:46:22;18.40;99.90
15656;DHT22;7928;43.614;1.456;2023-03-14T15:48:50;17.70;99.90
15656;DHT22;7928;43.614;1.456;2023-03-14T15:51:18;17.30;99.90
15656;DHT22;7928;43.614;1.456;2023-03-14T15:53:45;18.00;99.90
15656;DHT22;7928;43.614;1.456;2023-03-14T15:56:14;18.10;99.90
15656;DHT22;7928;43.614;1.456;2023-03-14T15:58:43;18.40;99.90
15656;DHT22;7928;43.614;1.456;2023-03-14T16:01:13;18.30;99.90
15656;DHT22;7928;43.614;1.456;2023-03-14T16:03:41;18.30;99.90
15656;DHT22;7928;43.614;1.456;2023-03-14T16:06:10;17.70;99.90
15656;DHT22;7928;43.614;1.456;2023-03-14T16:08:37;17.60;99.90
15656;DHT22;7928;43.614;1.456;2023-03-14T16:11:04;18.00;99.90